Time,TemperatureF,DewpointF,PressureIn,WindDirection,WindDirectionDegrees,WindSpeedMPH,WindSpeedGustMPH,Humidity,HourlyPrecipIn,Conditions,Clouds,dailyrainin,SoftwareType,DateUTC
2013-04-02 00:00:00,71.0,-99.9,-100.00,East,101,19.0,-999.0,103,0.00,,,-99.99,,2013-04-02 00:00:00,
2013-04-02 00:23:00,71.0,-99.9,-100.00,East,101,19.0,-999.0,103,0.00,,,-99.99,,2013-04-02 00:23:00,
2013-04-02 00:33:00,71.0,-99.9,-100.00,East,101,19.0,-999.0,103,0.00,,,-99.99,,2013-04-02 00:33:00,
2013-04-02 00:43:00,71.0,-99.9,-100.00,East,101,19.0,-999.0,103,0.00,,,-99.99,,2013-04-02 00:43:00,
2013-04-02 00:53:00,71.0,-99.9,-100.00,East,101,19.0,-999.0,103,0.00,,,-99.99,,2013-04-02 00:53:00,
2013-04-02 01:00:00,70.0,-99.9,-100.00,East,98,19.0,-999.0,106,0.00,,,-99.99,,2013-04-02 01:00:00,
2013-04-02 01:23:00,70.0,-99.9,-100.00,East,98,19.0,-999.0,106,0.00,,,-99.99,,2013-04-02 01:23:00,
2013-04-02 01:32:00,70.0,-99.9,-100.00,East,98,19.0,-999.0,106,0.00,,,-99.99,,2013-04-02 01:32:00,
2013-04-02 01:43:00,70.0,-99.9,-100.00,East,98,19.0,-999.0,106,0.00,,,-99.99,,2013-04-02 01:43:00,
2013-04-02 01:53:00,70.0,-99.9,-100.00,East,98,19.0,-999.0,106,0.00,,,-99.99,,2013-04-02 01:53:00,
2013-04-02 02:00:00,70.0,-99.9,-100.00,East,100,18.0,-999.0,107,0.00,,,-99.99,,2013-04-02 02:00:00,
2013-04-02 02:23:00,70.0,-99.9,-100.00,East,100,18.0,-999.0,107,0.00,,,-99.99,,2013-04-02 02:23:00,
2013-04-02 02:33:00,70.0,-99.9,-100.00,East,100,18.0,-999.0,107,0.00,,,-99.99,,2013-04-02 02:33:00,
2013-04-02 02:43:00,70.0,-99.9,-100.00,East,100,18.0,-999.0,107,0.00,,,-99.99,,2013-04-02 02:43:00,
2013-04-02 02:53:00,70.0,-99.9,-100.00,East,100,18.0,-999.0,107,0.00,,,-99.99,,2013-04-02 02:53:00,
2013-04-02 03:00:00,70.0,-99.9,-100.00,ESE,105,16.0,-999.0,107,0.00,,,-99.99,,2013-04-02 03:00:00,
2013-04-02 03:23:00,70.0,-99.9,-100.00,ESE,105,16.0,-999.0,107,0.00,,,-99.99,,2013-04-02 03:23:00,
2013-04-02 03:34:00,70.0,-99.9,-100.00,ESE,105,16.0,-999.0,107,0.00,,,-99.99,,2013-04-02 03:34:00,
2013-04-02 03:44:00,70.0,-99.9,-100.00,ESE,105,16.0,-999.0,107,0.00,,,-99.99,,2013-04-02 03:44:00,
2013-04-02 03:53:00,70.0,-99.9,-100.00,ESE,105,16.0,-999.0,107,0.00,,,-99.99,,2013-04-02 03:53:00,
2013-04-02 04:00:00,70.0,-99.9,-100.00,East,101,17.0,-999.0,106,0.00,,,-99.99,,2013-04-02 04:00:00,
2013-04-02 04:23:00,70.0,-99.9,-100.00,East,101,17.0,-999.0,106,0.00,,,-99.99,,2013-04-02 04:23:00,
2013-04-02 04:33:00,70.0,-99.9,-100.00,East,101,17.0,-999.0,106,0.00,,,-99.99,,2013-04-02 04:33:00,
2013-04-02 04:43:00,70.0,-99.9,-100.00,East,101,17.0,-999.0,106,0.00,,,-99.99,,2013-04-02 04:43:00,
2013-04-02 04:53:00,70.0,-99.9,-100.00,East,101,17.0,-999.0,106,0.00,,,-99.99,,2013-04-02 04:53:00,
2013-04-02 05:00:00,70.0,-99.9,-100.00,ESE,113,14.0,-999.0,106,0.00,,,-99.99,,2013-04-02 05:00:00,
2013-04-02 05:23:00,70.0,-99.9,-100.00,ESE,113,14.0,-999.0,106,0.00,,,-99.99,,2013-04-02 05:23:00,
2013-04-02 05:33:00,70.0,-99.9,-100.00,ESE,113,14.0,-999.0,106,0.00,,,-99.99,,2013-04-02 05:33:00,
2013-04-02 05:43:00,70.0,-99.9,-100.00,ESE,113,14.0,-999.0,106,0.00,,,-99.99,,2013-04-02 05:43:00,
2013-04-02 05:53:00,70.0,-99.9,-100.00,ESE,113,14.0,-999.0,106,0.00,,,-99.99,,2013-04-02 05:53:00,
2013-04-02 06:00:00,70.0,-99.9,-100.00,SSE,152,10.0,-999.0,107,0.00,,,-99.99,,2013-04-02 06:00:00,
2013-04-02 06:22:00,70.0,-99.9,-100.00,SSE,152,10.0,-999.0,107,0.00,,,-99.99,,2013-04-02 06:22:00,
2013-04-02 06:32:00,70.0,-99.9,-100.00,SSE,152,10.0,-999.0,107,0.00,,,-99.99,,2013-04-02 06:32:00,
2013-04-02 06:42:00,70.0,-99.9,-100.00,SSE,152,10.0,-999.0,107,0.00,,,-99.99,,2013-04-02 06:42:00,
2013-04-02 06:53:00,70.0,-99.9,-100.00,SSE,152,10.0,-999.0,107,0.00,,,-99.99,,2013-04-02 06:53:00,
2013-04-02 07:00:00,70.0,-99.9,-100.00,East,98,14.0,-999.0,108,0.00,,,-99.99,,2013-04-02 07:00:00,
2013-04-02 07:22:00,70.0,-99.9,-100.00,East,98,14.0,-999.0,108,0.00,,,-99.99,,2013-04-02 07:22:00,
2013-04-02 07:32:00,70.0,-99.9,-100.00,East,98,14.0,-999.0,108,0.00,,,-99.99,,2013-04-02 07:32:00,
2013-04-02 07:43:00,70.0,-99.9,-100.00,East,98,14.0,-999.0,108,0.00,,,-99.99,,2013-04-02 07:43:00,
2013-04-02 07:53:00,70.0,-99.9,-100.00,East,98,14.0,-999.0,108,0.00,,,-99.99,,2013-04-02 07:53:00,
2013-04-02 08:00:00,70.0,-99.9,-100.00,ESE,108,17.0,-999.0,108,0.00,,,-99.99,,2013-04-02 08:00:00,
2013-04-02 08:23:00,70.0,-99.9,-100.00,ESE,108,17.0,-999.0,108,0.00,,,-99.99,,2013-04-02 08:23:00,
2013-04-02 08:33:00,70.0,-99.9,-100.00,ESE,108,17.0,-999.0,108,0.00,,,-99.99,,2013-04-02 08:33:00,
2013-04-02 08:43:00,70.0,-99.9,-100.00,ESE,108,17.0,-999.0,108,0.00,,,-99.99,,2013-04-02 08:43:00,
2013-04-02 08:53:00,70.0,-99.9,-100.00,ESE,108,17.0,-999.0,108,0.00,,,-99.99,,2013-04-02 08:53:00,
2013-04-02 09:00:00,70.0,-99.9,-100.00,ESE,110,16.0,-999.0,109,0.01,,,-99.99,,2013-04-02 09:00:00,
2013-04-02 09:23:00,70.0,-99.9,-100.00,ESE,110,16.0,-999.0,109,0.01,,,-99.99,,2013-04-02 09:23:00,
2013-04-02 09:33:00,70.0,-99.9,-100.00,ESE,110,16.0,-999.0,109,0.01,,,-99.99,,2013-04-02 09:33:00,
2013-04-02 09:43:00,70.0,-99.9,-100.00,ESE,110,16.0,-999.0,109,0.01,,,-99.99,,2013-04-02 09:43:00,
2013-04-02 09:53:00,70.0,-99.9,-100.00,ESE,110,16.0,-999.0,109,0.01,,,-99.99,,2013-04-02 09:53:00,
2013-04-02 10:00:00,70.0,-99.9,-100.00,SE,124,14.0,-999.0,109,0.00,,,-99.99,,2013-04-02 10:00:00,
2013-04-02 10:24:00,70.0,-99.9,-100.00,SE,124,14.0,-999.0,109,0.00,,,-99.99,,2013-04-02 10:24:00,
2013-04-02 10:33:00,70.0,-99.9,-100.00,SE,124,14.0,-999.0,109,0.00,,,-99.99,,2013-04-02 10:33:00,
2013-04-02 10:43:00,70.0,-99.9,-100.00,SE,124,14.0,-999.0,109,0.00,,,-99.99,,2013-04-02 10:43:00,
2013-04-02 10:53:00,70.0,-99.9,-100.00,SE,124,14.0,-999.0,109,0.00,,,-99.99,,2013-04-02 10:53:00,
2013-04-02 11:00:00,70.0,-99.9,-100.00,ESE,122,10.0,-999.0,108,0.00,,,-99.99,,2013-04-02 11:00:00,
2013-04-02 11:23:00,70.0,-99.9,-100.00,ESE,122,10.0,-999.0,108,0.00,,,-99.99,,2013-04-02 11:23:00,
2013-04-02 11:33:00,70.0,-99.9,-100.00,ESE,122,10.0,-999.0,108,0.00,,,-99.99,,2013-04-02 11:33:00,
2013-04-02 11:43:00,70.0,-99.9,-100.00,ESE,122,10.0,-999.0,108,0.00,,,-99.99,,2013-04-02 11:43:00,
2013-04-02 11:53:00,70.0,-99.9,-100.00,ESE,122,10.0,-999.0,108,0.00,,,-99.99,,2013-04-02 11:53:00,
2013-04-02 12:00:00,70.0,-99.9,-100.00,ENE,57,12.0,-999.0,108,0.00,,,-99.99,,2013-04-02 12:00:00,
2013-04-02 12:23:00,70.0,-99.9,-100.00,ENE,57,12.0,-999.0,108,0.00,,,-99.99,,2013-04-02 12:23:00,
2013-04-02 12:32:00,70.0,-99.9,-100.00,ENE,57,12.0,-999.0,108,0.00,,,-99.99,,2013-04-02 12:32:00,
2013-04-02 12:43:00,70.0,-99.9,-100.00,ENE,57,12.0,-999.0,108,0.00,,,-99.99,,2013-04-02 12:43:00,
2013-04-02 12:53:00,70.0,-99.9,-100.00,ENE,57,12.0,-999.0,108,0.00,,,-99.99,,2013-04-02 12:53:00,
2013-04-02 13:00:00,70.0,-99.9,-100.00,ENE,74,9.0,-999.0,107,0.00,,,-99.99,,2013-04-02 13:00:00,
2013-04-02 13:23:00,70.0,-99.9,-100.00,ENE,74,9.0,-999.0,107,0.00,,,-99.99,,2013-04-02 13:23:00,
2013-04-02 13:33:00,70.0,-99.9,-100.00,ENE,74,9.0,-999.0,107,0.00,,,-99.99,,2013-04-02 13:33:00,
2013-04-02 13:42:00,70.0,-99.9,-100.00,ENE,74,9.0,-999.0,107,0.00,,,-99.99,,2013-04-02 13:42:00,
2013-04-02 13:53:00,70.0,-99.9,-100.00,ENE,74,9.0,-999.0,107,0.00,,,-99.99,,2013-04-02 13:53:00,
2013-04-02 14:00:00,71.0,-99.9,-100.00,ENE,72,13.0,-999.0,106,0.00,,,-99.99,,2013-04-02 14:00:00,
2013-04-02 14:23:00,71.0,-99.9,-100.00,ENE,72,13.0,-999.0,106,0.00,,,-99.99,,2013-04-02 14:23:00,
2013-04-02 14:33:00,71.0,-99.9,-100.00,ENE,72,13.0,-999.0,106,0.00,,,-99.99,,2013-04-02 14:33:00,
2013-04-02 14:43:00,71.0,-99.9,-100.00,ENE,72,13.0,-999.0,106,0.00,,,-99.99,,2013-04-02 14:43:00,
2013-04-02 14:53:00,71.0,-99.9,-100.00,ENE,72,13.0,-999.0,106,0.00,,,-99.99,,2013-04-02 14:53:00,
2013-04-02 15:00:00,71.0,-99.9,-100.00,ENE,78,12.0,-999.0,104,0.00,,,-99.99,,2013-04-02 15:00:00,
2013-04-02 15:23:00,71.0,-99.9,-100.00,ENE,78,12.0,-999.0,104,0.00,,,-99.99,,2013-04-02 15:23:00,
2013-04-02 15:34:00,71.0,-99.9,-100.00,ENE,78,12.0,-999.0,104,0.00,,,-99.99,,2013-04-02 15:34:00,
2013-04-02 15:43:00,71.0,-99.9,-100.00,ENE,78,12.0,-999.0,104,0.00,,,-99.99,,2013-04-02 15:43:00,
2013-04-02 16:00:00,72.0,-99.9,-100.00,ENE,76,11.0,-999.0,103,0.00,,,-99.99,,2013-04-02 16:00:00,
2013-04-02 16:25:00,72.0,-99.9,-100.00,ENE,76,11.0,-999.0,103,0.00,,,-99.99,,2013-04-02 16:25:00,
2013-04-02 16:40:00,72.0,-99.9,-100.00,ENE,76,11.0,-999.0,103,0.00,,,-99.99,,2013-04-02 16:40:00,
2013-04-02 16:54:00,72.0,-99.9,-100.00,ENE,76,11.0,-999.0,103,0.00,,,-99.99,,2013-04-02 16:54:00,
2013-04-02 17:00:00,72.0,-99.9,-100.00,ENE,71,12.0,-999.0,102,0.00,,,-99.99,,2013-04-02 17:00:00,
2013-04-02 17:25:00,72.0,-99.9,-100.00,ENE,71,12.0,-999.0,102,0.00,,,-99.99,,2013-04-02 17:25:00,
2013-04-02 17:35:00,72.0,-99.9,-100.00,ENE,71,12.0,-999.0,102,0.00,,,-99.99,,2013-04-02 17:35:00,
2013-04-02 17:44:00,72.0,-99.9,-100.00,ENE,71,12.0,-999.0,102,0.00,,,-99.99,,2013-04-02 17:44:00,
2013-04-02 17:57:00,72.0,-99.9,-100.00,ENE,71,12.0,-999.0,102,0.00,,,-99.99,,2013-04-02 17:57:00,
2013-04-02 18:00:00,73.0,-99.9,-100.00,East,91,14.0,-999.0,101,0.00,,,-99.99,,2013-04-02 18:00:00,
2013-04-02 18:24:00,73.0,-99.9,-100.00,East,91,14.0,-999.0,101,0.00,,,-99.99,,2013-04-02 18:24:00,
2013-04-02 18:43:00,73.0,-99.9,-100.00,East,91,14.0,-999.0,101,0.00,,,-99.99,,2013-04-02 18:43:00,
2013-04-02 18:58:00,73.0,-99.9,-100.00,East,91,14.0,-999.0,101,0.00,,,-99.99,,2013-04-02 18:58:00,
2013-04-02 19:00:00,72.0,-99.9,-100.00,East,99,15.0,-999.0,105,0.00,,,-99.99,,2013-04-02 19:00:00,
2013-04-02 19:23:00,72.0,-99.9,-100.00,East,99,15.0,-999.0,105,0.00,,,-99.99,,2013-04-02 19:23:00,
2013-04-02 19:35:00,72.0,-99.9,-100.00,East,99,15.0,-999.0,105,0.00,,,-99.99,,2013-04-02 19:35:00,
2013-04-02 19:48:00,72.0,-99.9,-100.00,East,99,15.0,-999.0,105,0.00,,,-99.99,,2013-04-02 19:48:00,
2013-04-02 19:57:00,72.0,-99.9,-100.00,East,99,15.0,-999.0,105,0.00,,,-99.99,,2013-04-02 19:57:00,
2013-04-02 20:00:00,74.0,-99.9,-100.00,East,98,14.0,-999.0,102,0.00,,,-99.99,,2013-04-02 20:00:00,
2013-04-02 20:23:00,74.0,-99.9,-100.00,East,98,14.0,-999.0,102,0.00,,,-99.99,,2013-04-02 20:23:00,
2013-04-02 20:34:00,74.0,-99.9,-100.00,East,98,14.0,-999.0,102,0.00,,,-99.99,,2013-04-02 20:34:00,
2013-04-02 20:45:00,74.0,-99.9,-100.00,East,98,14.0,-999.0,102,0.00,,,-99.99,,2013-04-02 20:45:00,
2013-04-02 20:55:00,74.0,-99.9,-100.00,East,98,14.0,-999.0,102,0.00,,,-99.99,,2013-04-02 20:55:00,
2013-04-02 21:00:00,74.0,74.0,-100.00,East,98,15.0,-999.0,100,0.00,,,-99.99,,2013-04-02 21:00:00,
2013-04-02 21:23:00,74.0,74.0,-100.00,East,98,15.0,-999.0,100,0.00,,,-99.99,,2013-04-02 21:23:00,
2013-04-02 21:34:00,74.0,74.0,-100.00,East,98,15.0,-999.0,100,0.00,,,-99.99,,2013-04-02 21:34:00,
2013-04-02 21:44:00,74.0,74.0,-100.00,East,98,15.0,-999.0,100,0.00,,,-99.99,,2013-04-02 21:44:00,
2013-04-02 21:55:00,74.0,74.0,-100.00,East,98,15.0,-999.0,100,0.00,,,-99.99,,2013-04-02 21:55:00,
2013-04-02 22:00:00,74.0,71.0,-100.00,ESE,112,11.0,-999.0,91,0.00,,,-99.99,,2013-04-02 22:00:00,
2013-04-02 22:24:00,74.0,71.0,-100.00,ESE,112,11.0,-999.0,91,0.00,,,-99.99,,2013-04-02 22:24:00,
2013-04-02 22:33:00,74.0,71.0,-100.00,ESE,112,11.0,-999.0,91,0.00,,,-99.99,,2013-04-02 22:33:00,
2013-04-02 22:43:00,74.0,71.0,-100.00,ESE,112,11.0,-999.0,91,0.00,,,-99.99,,2013-04-02 22:43:00,
2013-04-02 22:54:00,74.0,71.0,-100.00,ESE,112,11.0,-999.0,91,0.00,,,-99.99,,2013-04-02 22:54:00,
2013-04-02 23:00:00,74.0,71.0,-100.00,East,100,15.0,-999.0,91,0.00,,,-99.99,,2013-04-02 23:00:00,
2013-04-02 23:23:00,74.0,71.0,-100.00,East,100,15.0,-999.0,91,0.00,,,-99.99,,2013-04-02 23:23:00,
2013-04-02 23:35:00,74.0,71.0,-100.00,East,100,15.0,-999.0,91,0.00,,,-99.99,,2013-04-02 23:35:00,
2013-04-02 23:43:00,74.0,71.0,-100.00,East,100,15.0,-999.0,91,0.00,,,-99.99,,2013-04-02 23:43:00,
2013-04-02 23:54:00,74.0,71.0,-100.00,East,100,15.0,-999.0,91,0.00,,,-99.99,,2013-04-02 23:54:00,